Time;durP1;ratioP1;P1;durP2;ratioP2;P2;SDS_P1;SDS_P2;PMS_P1;PMS_P2;Temp;Humidity;BMP_temperature;BMP_pressure;BME280_temperature;BME280_humidity;BME280_pressure;Samples;Min_cycle;Max_cycle;Signal;HPM_P1;HPM_P2
2023/12/07 00:00:05;;;;;;;;;;;;;;;1.12;100.00;101897.41;5114444;28;19916;-39
2023/12/07 00:02:31;;;;;;;;;;;;;;;1.10;100.00;101890.38;5115222;28;20366;-38
2023/12/07 00:04:56;;;;;;;;;;;;;;;1.03;100.00;101894.38;5115226;28;19951;-37
2023/12/07 00:07:21;;;;;;;;;;;;;;;1.03;100.00;101893.53;5115551;28;19955;-40
2023/12/07 00:09:46;;;;;;;;;;;;;;;0.98;100.00;101901.75;5114771;28;20349;-39
2023/12/07 00:12:11;;;;;;;;;;;;;;;0.94;100.00;101894.91;5114689;28;19935;-39
2023/12/07 00:14:37;;;;;;;;;;;;;;;0.91;100.00;101891.59;5114927;28;19931;-39
2023/12/07 00:17:02;;;;;;;;;;;;;;;0.88;100.00;101882.03;5115065;28;19931;-39
2023/12/07 00:19:27;;;;;;;;;;;;;;;0.87;100.00;101877.72;5114005;28;19920;-39
2023/12/07 00:21:52;;;;;;;;;;;;;;;0.87;100.00;101883.00;5114484;28;19920;-40
2023/12/07 00:24:18;;;;;;;;;;;;;;;0.88;100.00;101882.03;5115280;28;20362;-38
2023/12/07 00:26:43;;;;;;;;;;;;;;;0.83;100.00;101884.13;5116537;28;19927;-39
2023/12/07 00:29:08;;;;;;;;;;;;;;;0.86;100.00;101881.28;5117663;28;19915;-39
2023/12/07 00:31:33;;;;;;;;;;;;;;;0.87;100.00;101885.66;5117009;28;19919;-39
2023/12/07 00:33:59;;;;;;;;;;;;;;;0.88;100.00;101890.00;5115324;28;20081;-39
2023/12/07 00:36:24;;;;;;;;;;;;;;;0.83;100.00;101879.66;5121557;28;19920;-39
2023/12/07 00:38:49;;;;;;;;;;;;;;;0.83;100.00;101881.47;5120684;28;19931;-38
2023/12/07 00:41:14;;;;;;;;;;;;;;;0.75;100.00;101878.44;5122308;28;19920;-39
2023/12/07 00:43:39;;;;;;;;;;;;;;;0.61;100.00;101880.13;5121820;28;19922;-39
2023/12/07 00:46:06;;;;;;;;;;;;;;;0.59;100.00;101868.75;5119186;28;20007;-39
2023/12/07 00:48:31;;;;;;;;;;;;;;;0.62;100.00;101876.53;5118337;28;19946;-39
2023/12/07 00:50:57;;;;;;;;;;;;;;;0.65;100.00;101872.84;5120370;28;19958;-38
2023/12/07 00:53:22;;;;;;;;;;;;;;;0.64;100.00;101873.78;5117967;28;19920;-37
2023/12/07 00:55:47;;;;;;;;;;;;;;;0.64;100.00;101882.59;5114042;28;19916;-38
2023/12/07 00:58:13;;;;;;;;;;;;;;;0.65;100.00;101883.44;5112799;28;19954;-38
2023/12/07 01:00:39;;;;;;;;;;;;;;;0.66;100.00;101885.16;5114268;28;19919;-37
2023/12/07 01:03:05;;;;;;;;;;;;;;;0.65;100.00;101878.97;5114714;27;19946;-39
2023/12/07 01:05:30;;;;;;;;;;;;;;;0.68;100.00;101887.69;5114095;28;20424;-39
2023/12/07 01:07:55;;;;;;;;;;;;;;;0.68;100.00;101885.88;5113666;28;19928;-39
2023/12/07 01:10:21;;;;;;;;;;;;;;;0.71;100.00;101887.50;5113797;28;19920;-37
2023/12/07 01:12:46;;;;;;;;;;;;;;;0.75;100.00;101889.03;5113806;28;19920;-37
2023/12/07 01:15:11;;;;;;;;;;;;;;;0.69;100.00;101897.38;5113850;28;19919;-39
2023/12/07 01:17:37;;;;;;;;;;;;;;;0.65;100.00;101894.88;5113583;28;20404;-38
2023/12/07 01:20:03;;;;;;;;;;;;;;;0.61;100.00;101898.66;5113631;28;19973;-38
2023/12/07 01:22:29;;;;;;;;;;;;;;;0.64;100.00;101898.47;5113618;28;20030;-40
2023/12/07 01:24:54;;;;;;;;;;;;;;;0.69;100.00;101897.38;5113853;28;19962;-39
2023/12/07 01:27:19;;;;;;;;;;;;;;;0.69;100.00;101894.72;5101845;28;19920;-39
2023/12/07 01:29:45;;;;;;;;;;;;;;;0.73;100.00;101896.22;5113050;28;19934;-39
2023/12/07 01:32:10;;;;;;;;;;;;;;;0.76;100.00;101883.63;5113195;28;19920;-39
2023/12/07 01:34:35;;;;;;;;;;;;;;;0.77;100.00;101887.16;5113072;28;20007;-39
2023/12/07 01:37:00;;;;;;;;;;;;;;;0.79;100.00;101877.28;5113744;28;19919;-39
2023/12/07 01:39:26;;;;;;;;;;;;;;;0.79;100.00;101890.53;5114634;28;19968;-40
2023/12/07 01:41:51;;;;;;;;;;;;;;;0.80;100.00;101887.81;5114436;28;19931;-39
2023/12/07 01:44:16;;;;;;;;;;;;;;;0.80;100.00;101881.66;5113780;28;19931;-39
2023/12/07 01:46:41;;;;;;;;;;;;;;;0.78;100.00;101884.41;5114545;28;19927;-39
2023/12/07 01:49:07;;;;;;;;;;;;;;;0.81;100.00;101886.00;5113514;28;20389;-38
2023/12/07 01:51:32;;;;;;;;;;;;;;;0.82;100.00;101885.09;5112728;28;19991;-39
2023/12/07 01:53:57;;;;;;;;;;;;;;;0.85;100.00;101880.44;5112634;28;20335;-38
2023/12/07 01:56:23;;;;;;;;;;;;;;;0.92;100.00;101882.69;5112034;28;19919;-39
2023/12/07 01:58:49;;;;;;;;;;;;;;;0.99;100.00;101886.69;5112839;28;20347;-39
2023/12/07 02:01:14;;;;;;;;;;;;;;;0.98;100.00;101885.84;5111043;28;19924;-39
2023/12/07 02:03:40;;;;;;;;;;;;;;;0.98;100.00;101885.84;5112506;28;19916;-39
2023/12/07 02:06:05;;;;;;;;;;;;;;;1.00;100.00;101889.25;5112631;28;20366;-41
2023/12/07 02:08:30;;;;;;;;;;;;;;;1.01;100.00;101890.09;5112570;28;19920;-39
2023/12/07 02:10:55;;;;;;;;;;;;;;;1.01;100.00;101888.31;5112686;28;20281;-39
2023/12/07 02:13:21;;;;;;;;;;;;;;;1.00;100.00;101883.97;5112677;28;20374;-39
2023/12/07 02:15:46;;;;;;;;;;;;;;;1.01;100.00;101884.81;5113265;28;20330;-40
2023/12/07 02:18:11;;;;;;;;;;;;;;;1.01;100.00;101890.94;5119096;28;20011;-38
2023/12/07 02:20:43;;;;;;;;;;;;;;;1.02;100.00;101891.78;5121200;28;19924;-39
2023/12/07 02:23:09;;;;;;;;;;;;;;;1.02;100.00;101887.34;5102606;28;20293;-39
2023/12/07 02:25:41;;;;;;;;;;;;;;;1.02;100.00;101892.63;5113518;28;19919;-38
2023/12/07 02:28:06;;;;;;;;;;;;;;;0.98;100.00;101893.78;5110825;28;19927;-39
2023/12/07 02:30:32;;;;;;;;;;;;;;;0.99;100.00;101890.19;5111103;28;20315;-39
2023/12/07 02:32:57;;;;;;;;;;;;;;;0.96;100.00;101897.47;5113046;28;19994;-39
2023/12/07 02:35:22;;;;;;;;;;;;;;;0.97;100.00;101896.53;5112192;28;19920;-39
2023/12/07 02:37:48;;;;;;;;;;;;;;;0.91;100.00;101889.81;5112558;28;19916;-38
2023/12/07 02:40:15;;;;;;;;;;;;;;;0.94;100.00;101894.91;5112088;28;19996;-38
2023/12/07 02:42:41;;;;;;;;;;;;;;;0.92;100.00;101896.78;5111094;28;20019;-38
2023/12/07 02:45:06;;;;;;;;;;;;;;;0.93;100.00;101893.22;5112250;28;19971;-39
2023/12/07 02:47:32;;;;;;;;;;;;;;;0.87;100.00;101883.00;5110896;28;20268;-37
2023/12/07 02:49:57;;;;;;;;;;;;;;;0.85;100.00;101890.19;5110929;28;19931;-38
2023/12/07 02:52:22;;;;;;;;;;;;;;;0.82;100.00;101895.69;5112007;28;20361;-38
2023/12/07 02:54:48;;;;;;;;;;;;;;;0.79;100.00;101895.84;5112013;28;19926;-38
2023/12/07 02:57:14;;;;;;;;;;;;;;;0.84;100.00;101899.06;5112501;28;19920;-39
2023/12/07 02:59:39;;;;;;;;;;;;;;;0.83;100.00;101908.81;5112857;28;19965;-39
2023/12/07 03:02:05;;;;;;;;;;;;;;;0.81;100.00;101894.81;5112117;28;19959;-39
2023/12/07 03:04:30;;;;;;;;;;;;;;;0.82;100.00;101887.72;5112270;28;19922;-38
2023/12/07 03:06:55;;;;;;;;;;;;;;;0.80;100.00;101897.56;5112410;28;19923;-38
2023/12/07 03:09:20;;;;;;;;;;;;;;;0.75;100.00;101899.63;5111846;28;19925;-39
2023/12/07 03:11:45;;;;;;;;;;;;;;;0.71;100.00;101892.81;5112144;28;20067;-39
2023/12/07 03:14:11;;;;;;;;;;;;;;;0.72;100.00;101895.38;5111752;28;19926;-39
2023/12/07 03:16:36;;;;;;;;;;;;;;;0.64;100.00;101885.25;5111544;28;19920;-39
2023/12/07 03:19:01;;;;;;;;;;;;;;;0.59;100.00;101884.66;5112181;28;19927;-38
2023/12/07 03:21:27;;;;;;;;;;;;;;;0.64;100.00;101887.88;5113003;28;19923;-38
2023/12/07 03:23:52;;;;;;;;;;;;;;;0.64;100.00;101892.34;5118471;28;19928;-39
2023/12/07 03:26:17;;;;;;;;;;;;;;;0.63;100.00;101895.91;5118188;28;19927;-39
2023/12/07 03:28:42;;;;;;;;;;;;;;;0.72;100.00;101894.53;5116154;28;19927;-39
2023/12/07 03:31:08;;;;;;;;;;;;;;;0.76;100.00;101890.72;5116051;28;19920;-39
2023/12/07 03:33:33;;;;;;;;;;;;;;;0.77;100.00;101897.75;5116138;28;20328;-38
2023/12/07 03:35:58;;;;;;;;;;;;;;;0.77;100.00;101887.16;5115620;28;19955;-39
2023/12/07 03:38:23;;;;;;;;;;;;;;;0.77;100.00;101881.84;5115286;28;19962;-39
2023/12/07 03:40:49;;;;;;;;;;;;;;;0.82;100.00;101885.09;5115442;28;19974;-38
2023/12/07 03:43:14;;;;;;;;;;;;;;;0.82;100.00;101887.72;5115589;28;19927;-38
2023/12/07 03:45:40;;;;;;;;;;;;;;;0.84;100.00;101885.81;5116085;28;19938;-38
2023/12/07 03:48:05;;;;;;;;;;;;;;;0.87;100.00;101883.00;5115594;28;19924;-38
2023/12/07 03:50:30;;;;;;;;;;;;;;;0.85;100.00;101884.88;5115610;28;19920;-38
2023/12/07 03:52:55;;;;;;;;;;;;;;;0.83;100.00;101884.13;5115410;28;20060;-39
2023/12/07 03:55:20;;;;;;;;;;;;;;;0.85;100.00;101884.88;5118483;28;19927;-37
2023/12/07 03:57:46;;;;;;;;;;;;;;;0.87;100.00;101883.00;5121183;28;19920;-37
2023/12/07 04:00:11;;;;;;;;;;;;;;;0.86;100.00;101886.59;5122153;28;20374;-38
2023/12/07 04:02:36;;;;;;;;;;;;;;;0.87;100.00;101888.31;5119610;28;20464;-39
2023/12/07 04:05:02;;;;;;;;;;;;;;;0.93;100.00;101887.91;5121056;28;20404;-38
2023/12/07 04:07:28;;;;;;;;;;;;;;;0.90;100.00;101893.41;5123424;28;20370;-39
2023/12/07 04:09:53;;;;;;;;;;;;;;;0.87;100.00;101877.72;5121035;28;19919;-39
2023/12/07 04:12:19;;;;;;;;;;;;;;;0.87;100.00;101890.97;5114901;28;19920;-38
2023/12/07 04:14:45;;;;;;;;;;;;;;;0.87;100.00;101888.31;5115021;28;19927;-39
2023/12/07 04:17:10;;;;;;;;;;;;;;;0.89;100.00;101889.03;5114408;28;19927;-38
2023/12/07 04:19:35;;;;;;;;;;;;;;;0.87;100.00;101888.31;5112627;28;19920;-38
2023/12/07 04:22:00;;;;;;;;;;;;;;;0.84;100.00;101878.75;5114351;28;19924;-39
2023/12/07 04:24:26;;;;;;;;;;;;;;;0.82;100.00;101880.63;5112800;28;20006;-38
2023/12/07 04:26:51;;;;;;;;;;;;;;;0.86;100.00;101886.59;5113380;28;19927;-38
2023/12/07 04:29:16;;;;;;;;;;;;;;;0.90;100.00;101880.16;5113890;28;19920;-38
2023/12/07 04:31:41;;;;;;;;;;;;;;;0.93;100.00;101882.63;5113195;28;20409;-39
2023/12/07 04:34:06;;;;;;;;;;;;;;;0.93;100.00;101877.31;5114380;28;19973;-39
2023/12/07 04:36:32;;;;;;;;;;;;;;;0.93;100.00;101882.63;5113087;28;20020;-39
2023/12/07 04:38:57;;;;;;;;;;;;;;;0.93;100.00;101881.78;5114171;28;20428;-38
2023/12/07 04:41:22;;;;;;;;;;;;;;;0.95;100.00;101885.16;5113819;28;20412;-38
2023/12/07 04:43:47;;;;;;;;;;;;;;;0.87;100.00;101886.50;5113802;28;20439;-39
2023/12/07 04:46:13;;;;;;;;;;;;;;;0.88;100.00;101888.19;5114091;28;20011;-39
2023/12/07 04:48:38;;;;;;;;;;;;;;;0.82;100.00;101890.38;5114482;28;20009;-38
2023/12/07 04:51:03;;;;;;;;;;;;;;;0.81;100.00;101888.66;5113607;28;20349;-38
2023/12/07 04:53:28;;;;;;;;;;;;;;;0.81;100.00;101905.41;5114478;28;19920;-39
2023/12/07 04:55:54;;;;;;;;;;;;;;;0.82;100.00;101904.47;5117598;28;19974;-38
2023/12/07 04:58:19;;;;;;;;;;;;;;;0.87;100.00;101896.25;5118611;28;19920;-39
2023/12/07 05:00:44;;;;;;;;;;;;;;;0.90;100.00;101897.88;5118984;28;19945;-37
2023/12/07 05:03:09;;;;;;;;;;;;;;;0.85;100.00;101895.50;5116710;28;20018;-38
2023/12/07 05:05:36;;;;;;;;;;;;;;;0.97;100.00;101897.38;5115184;28;19920;-37
2023/12/07 05:08:01;;;;;;;;;;;;;;;0.95;100.00;101898.41;5117425;28;19984;-38
2023/12/07 05:10:26;;;;;;;;;;;;;;;0.81;100.00;101896.59;5114881;28;19927;-39
2023/12/07 05:12:51;;;;;;;;;;;;;;;0.79;100.00;101887.88;5113734;28;19920;-37
2023/12/07 05:15:17;;;;;;;;;;;;;;;0.78;100.00;101887.03;5114079;28;19927;-38
2023/12/07 05:17:42;;;;;;;;;;;;;;;0.69;100.00;101879.66;5113636;28;19919;-36
2023/12/07 05:20:07;;;;;;;;;;;;;;;0.69;100.00;101868.22;5114221;28;19927;-38
2023/12/07 05:22:33;;;;;;;;;;;;;;;0.74;100.00;101876.72;5114438;28;20342;-37
2023/12/07 05:24:58;;;;;;;;;;;;;;;0.72;100.00;101876.81;5113640;28;19920;-39
2023/12/07 05:27:23;;;;;;;;;;;;;;;0.70;100.00;101870.75;5113866;28;20277;-39
2023/12/07 05:29:49;;;;;;;;;;;;;;;0.69;100.00;101868.22;5110929;28;19946;-39
2023/12/07 05:32:14;;;;;;;;;;;;;;;0.74;100.00;101866.13;5116964;28;20293;-39
2023/12/07 05:34:39;;;;;;;;;;;;;;;0.70;100.00;101862.81;5114103;28;19920;-39
2023/12/07 05:37:04;;;;;;;;;;;;;;;0.61;100.00;101861.59;5108795;28;19920;-39
2023/12/07 05:39:30;;;;;;;;;;;;;;;0.45;100.00;101858.16;5116276;28;19927;-37
2023/12/07 05:41:55;;;;;;;;;;;;;;;0.26;100.00;101861.00;5112006;28;19942;-39
2023/12/07 05:44:22;;;;;;;;;;;;;;;0.12;100.00;101861.81;5113506;28;19923;-39
2023/12/07 05:46:47;;;;;;;;;;;;;;;0.14;100.00;101861.75;5113383;28;20447;-39
2023/12/07 05:49:13;;;;;;;;;;;;;;;0.04;100.00;101861.44;5112990;28;19919;-39
2023/12/07 05:51:38;;;;;;;;;;;;;;;0.05;100.00;101855.19;5112904;28;20010;-38
2023/12/07 05:54:03;;;;;;;;;;;;;;;0.12;100.00;101853.88;5113465;28;19915;-39
2023/12/07 05:56:29;;;;;;;;;;;;;;;0.16;100.00;101846.63;5111799;28;19959;-38
2023/12/07 05:58:54;;;;;;;;;;;;;;;0.15;100.00;101847.56;5113458;28;19972;-38
2023/12/07 06:01:19;;;;;;;;;;;;;;;0.15;100.00;101853.69;5110003;28;19923;-39
2023/12/07 06:03:45;;;;;;;;;;;;;;;0.21;100.00;101863.06;5110938;28;19920;-39
2023/12/07 06:06:11;;;;;;;;;;;;;;;0.27;100.00;101873.31;5113467;28;19966;-39
2023/12/07 06:08:36;;;;;;;;;;;;;;;0.15;100.00;101876.69;5117301;28;19927;-38
2023/12/07 06:11:02;;;;;;;;;;;;;;;0.18;100.00;101864.09;5117563;28;19920;-37
2023/12/07 06:13:27;;;;;;;;;;;;;;;0.24;100.00;101862.94;5117586;28;19926;-39
2023/12/07 06:15:52;;;;;;;;;;;;;;;0.33;100.00;101866.81;5118066;28;20260;-37
2023/12/07 06:18:17;;;;;;;;;;;;;;;0.30;100.00;101862.56;5115178;28;19919;-40
2023/12/07 06:20:43;;;;;;;;;;;;;;;0.32;100.00;101860.66;5112528;28;19926;-37
2023/12/07 06:23:12;;;;;;;;;;;;;;;0.14;100.00;101859.94;5112335;28;19919;-39
2023/12/07 06:25:38;;;;;;;;;;;;;;;0.14;100.00;101867.03;5100792;28;19920;-38
2023/12/07 06:28:03;;;;;;;;;;;;;;;0.07;100.00;101865.69;5112148;28;19947;-39
2023/12/07 06:30:28;;;;;;;;;;;;;;;0.02;100.00;101865.94;5112653;28;19980;-39
2023/12/07 06:32:54;;;;;;;;;;;;;;;-0.06;100.00;101866.38;5112425;28;19920;-39
2023/12/07 06:35:19;;;;;;;;;;;;;;;-0.11;100.00;101862.31;5113141;28;19920;-39
2023/12/07 06:37:44;;;;;;;;;;;;;;;-0.13;100.00;101864.19;5108092;28;19920;-37
2023/12/07 06:40:09;;;;;;;;;;;;;;;-0.28;100.00;101866.78;5113674;28;19920;-38
2023/12/07 06:42:35;;;;;;;;;;;;;;;-0.31;100.00;101864.31;5112845;28;19920;-38
2023/12/07 06:45:02;;;;;;;;;;;;;;;-0.31;100.00;101860.81;5114103;28;19927;-39
2023/12/07 06:47:27;;;;;;;;;;;;;;;-0.16;100.00;101859.91;5117276;28;19998;-39
2023/12/07 06:49:52;;;;;;;;;;;;;;;-0.07;100.00;101861.19;5119140;28;19977;-38
2023/12/07 06:52:17;;;;;;;;;;;;;;;-0.03;100.00;101873.28;5120408;28;19919;-40
2023/12/07 06:54:42;;;;;;;;;;;;;;;-0.17;100.00;101865.31;5115772;28;19943;-39
2023/12/07 06:57:08;;;;;;;;;;;;;;;-0.24;100.00;101864.78;5116001;28;19912;-39
2023/12/07 06:59:33;;;;;;;;;;;;;;;-0.29;100.00;101861.53;5117093;28;19936;-39
2023/12/07 07:01:58;;;;;;;;;;;;;;;-0.32;100.00;101859.94;5122824;28;19923;-38
2023/12/07 07:04:23;;;;;;;;;;;;;;;-0.31;100.00;101861.66;5123955;28;20367;-39
2023/12/07 07:06:49;;;;;;;;;;;;;;;-0.34;100.00;101863.59;5122102;28;20216;-38
2023/12/07 07:09:15;;;;;;;;;;;;;;;-0.41;100.00;101865.75;5123924;27;20288;-39
2023/12/07 07:11:40;;;;;;;;;;;;;;;-0.40;100.00;101866.59;5123549;28;20443;-39
2023/12/07 07:14:06;;;;;;;;;;;;;;;-0.42;100.00;101874.63;5124014;28;19924;-39
2023/12/07 07:16:31;;;;;;;;;;;;;;;-0.36;100.00;101861.06;5124933;28;19912;-38
2023/12/07 07:18:56;;;;;;;;;;;;;;;-0.34;100.00;101861.84;5121952;28;19966;-37
2023/12/07 07:21:22;;;;;;;;;;;;;;;-0.35;100.00;101864.56;5115873;28;20010;-39
2023/12/07 07:23:47;;;;;;;;;;;;;;;-0.35;100.00;101860.09;5116495;28;19965;-39
2023/12/07 07:26:16;;;;;;;;;;;;;;;-0.30;100.00;101868.63;5116405;28;19972;-39
2023/12/07 07:28:42;;;;;;;;;;;;;;;-0.20;100.00;101868.13;5116495;28;19922;-38
2023/12/07 07:31:07;;;;;;;;;;;;;;;-0.13;100.00;101866.81;5116464;28;19919;-39
2023/12/07 07:33:32;;;;;;;;;;;;;;;-0.05;100.00;101868.09;5115551;28;20297;-39
2023/12/07 07:35:57;;;;;;;;;;;;;;;-0.11;100.00;101864.94;5115655;28;20267;-39
2023/12/07 07:38:23;;;;;;;;;;;;;;;-0.17;100.00;101857.38;5116609;28;20347;-36
2023/12/07 07:40:48;;;;;;;;;;;;;;;-0.18;100.00;101855.69;5117802;28;20330;-38
2023/12/07 07:43:14;;;;;;;;;;;;;;;-0.15;100.00;101868.72;5116887;28;19920;-40
2023/12/07 07:45:39;;;;;;;;;;;;;;;-0.13;100.00;101874.75;5116279;28;20328;-37
2023/12/07 07:48:04;;;;;;;;;;;;;;;-0.10;100.00;101877.25;5115607;28;19915;-37
2023/12/07 07:50:29;;;;;;;;;;;;;;;-0.01;100.00;101869.63;5116165;28;20303;-37
2023/12/07 07:52:55;;;;;;;;;;;;;;;0.10;100.00;101868.16;5114924;28;19919;-38
2023/12/07 07:55:20;;;;;;;;;;;;;;;0.16;100.00;101865.16;5116075;28;20445;-38
2023/12/07 07:57:45;;;;;;;;;;;;;;;0.11;100.00;101869.88;5115754;28;20355;-38
2023/12/07 08:00:12;;;;;;;;;;;;;;;0.05;100.00;101878.16;5115257;28;20258;-38
2023/12/07 08:02:38;;;;;;;;;;;;;;;-0.03;100.00;101886.53;5102677;27;19926;-39
2023/12/07 08:05:03;;;;;;;;;;;;;;;0.03;100.00;101887.97;5115174;27;19923;-38
2023/12/07 08:07:28;;;;;;;;;;;;;;;0.06;100.00;101886.03;5115094;28;20003;-38
2023/12/07 08:09:54;;;;;;;;;;;;;;;0.11;100.00;101877.81;5115068;27;20286;-38
2023/12/07 08:12:19;;;;;;;;;;;;;;;0.12;100.00;101875.06;5114792;28;19916;-38
2023/12/07 08:14:45;;;;;;;;;;;;;;;0.10;100.00;101879.59;5115193;27;19919;-39
2023/12/07 08:17:11;;;;;;;;;;;;;;;0.07;100.00;101874.47;5115551;28;20285;-37
2023/12/07 08:19:37;;;;;;;;;;;;;;;0.19;100.00;101881.72;5114940;28;20014;-38
2023/12/07 08:22:03;;;;;;;;;;;;;;;0.24;100.00;101883.22;5114399;27;19934;-38
2023/12/07 08:24:28;;;;;;;;;;;;;;;0.24;100.00;101878.81;5117100;27;20014;-37
2023/12/07 08:26:53;;;;;;;;;;;;;;;0.26;100.00;101876.06;5116013;27;19927;-39
2023/12/07 08:29:18;;;;;;;;;;;;;;;0.31;100.00;101869.53;5121198;27;19919;-38
2023/12/07 08:31:44;;;;;;;;;;;;;;;0.32;100.00;101881.84;5120959;27;19927;-38
2023/12/07 08:34:09;;;;;;;;;;;;;;;0.25;100.00;101877.00;5115607;27;19920;-38
2023/12/07 08:36:34;;;;;;;;;;;;;;;0.28;100.00;101875.03;5115408;27;19988;-38
2023/12/07 08:38:59;;;;;;;;;;;;;;;0.29;100.00;101867.94;5113725;28;19931;-38
2023/12/07 08:41:24;;;;;;;;;;;;;;;0.28;100.00;101871.53;5114451;28;19922;-36
2023/12/07 08:43:50;;;;;;;;;;;;;;;0.22;100.00;101870.94;5113386;27;19924;-37
2023/12/07 08:46:15;;;;;;;;;;;;;;;0.26;100.00;101862.81;5114252;28;20036;-38
2023/12/07 08:48:41;;;;;;;;;;;;;;;0.22;100.00;101867.44;5114419;28;19931;-38
2023/12/07 08:51:08;;;;;;;;;;;;;;;0.27;100.00;101846.84;5114833;28;19922;-37
2023/12/07 08:53:33;;;;;;;;;;;;;;;0.28;100.00;101863.59;5117470;28;19916;-37
2023/12/07 08:55:58;;;;;;;;;;;;;;;0.30;100.00;101859.06;5119811;28;20279;-36
2023/12/07 08:58:23;;;;;;;;;;;;;;;0.40;100.00;101854.94;5120107;28;20096;-39
2023/12/07 09:00:49;;;;;;;;;;;;;;;0.36;100.00;101867.47;5119807;28;19923;-39
2023/12/07 09:03:14;;;;;;;;;;;;;;;0.34;100.00;101863.22;5114850;28;19922;-37
2023/12/07 09:05:39;;;;;;;;;;;;;;;0.36;100.00;101869.28;5119411;27;19968;-37
2023/12/07 09:08:05;;;;;;;;;;;;;;;0.40;100.00;101863.72;5118119;28;19927;-38
2023/12/07 09:10:30;;;;;;;;;;;;;;;0.39;100.00;101863.78;5125049;27;20031;-36
2023/12/07 09:12:56;;;;;;;;;;;;;;;0.48;100.00;101857.97;5119109;28;20568;-37
2023/12/07 09:15:23;;;;;;;;;;;;;;;0.50;100.00;101848.13;5119937;28;20157;-39
2023/12/07 09:17:48;;;;;;;;;;;;;;;0.53;100.00;101853.25;5120264;28;20374;-38
2023/12/07 09:20:14;;;;;;;;;;;;;;;0.54;100.00;101854.09;5117194;27;20014;-38
2023/12/07 09:22:48;;;;;;;;;;;;;;;0.56;100.00;101847.75;5118178;28;20001;-38
2023/12/07 09:25:13;;;;;;;;;;;;;;;0.60;100.00;101843.97;5106801;28;19984;-38
2023/12/07 09:27:39;;;;;;;;;;;;;;;0.68;100.00;101840.00;5100877;28;19967;-38
2023/12/07 09:30:10;;;;;;;;;;;;;;;0.66;100.00;101832.16;5117172;28;19920;-38
2023/12/07 09:32:38;;;;;;;;;;;;;;;0.71;100.00;101823.91;5117527;28;19931;-38
2023/12/07 09:35:07;;;;;;;;;;;;;;;0.77;100.00;101827.06;5115060;28;19959;-38
2023/12/07 09:37:32;;;;;;;;;;;;;;;0.84;100.00;101819.56;5113160;28;19973;-37
2023/12/07 09:39:57;;;;;;;;;;;;;;;0.82;100.00;101816.19;5114281;28;19920;-36
2023/12/07 09:42:22;;;;;;;;;;;;;;;0.91;100.00;101809.44;5116615;28;20433;-38
2023/12/07 09:44:48;;;;;;;;;;;;;;;0.95;100.00;101810.94;5113677;28;20022;-38
2023/12/07 09:47:13;;;;;;;;;;;;;;;0.95;100.00;101811.81;5113945;28;19954;-39
2023/12/07 09:49:38;;;;;;;;;;;;;;;1.04;100.00;101807.72;5116473;27;19955;-38
2023/12/07 09:52:04;;;;;;;;;;;;;;;1.10;100.00;101805.53;5116298;27;19919;-38
2023/12/07 09:54:29;;;;;;;;;;;;;;;1.09;100.00;101808.28;5114990;27;20425;-38
2023/12/07 09:56:54;;;;;;;;;;;;;;;1.12;100.00;101810.75;5121278;27;20323;-38
2023/12/07 09:59:20;;;;;;;;;;;;;;;1.15;100.00;101812.34;5113203;28;19919;-38
2023/12/07 10:01:45;;;;;;;;;;;;;;;1.09;100.00;101816.25;5112760;28;19920;-38
2023/12/07 10:04:18;;;;;;;;;;;;;;;1.09;100.00;101814.44;5113184;28;19976;-36
2023/12/07 10:06:44;;;;;;;;;;;;;;;1.22;100.00;101811.03;5129341;27;19924;-39
2023/12/07 10:09:11;;;;;;;;;;;;;;;1.22;100.00;101801.25;5112857;28;19920;-39
2023/12/07 10:11:36;;;;;;;;;;;;;;;1.34;100.00;101796.13;5132834;27;19919;-38
2023/12/07 10:14:01;;;;;;;;;;;;;;;1.31;100.00;101795.34;5126448;27;20361;-37
2023/12/07 10:16:26;;;;;;;;;;;;;;;1.47;100.00;101797.03;5113039;28;20362;-38
2023/12/07 10:18:51;;;;;;;;;;;;;;;1.52;100.00;101790.47;5113469;28;20378;-38
2023/12/07 10:21:17;;;;;;;;;;;;;;;1.57;100.00;101789.31;5130549;28;20429;-39
2023/12/07 10:23:47;;;;;;;;;;;;;;;1.68;100.00;101789.47;5114801;28;19923;-39
2023/12/07 10:26:12;;;;;;;;;;;;;;;1.61;100.00;101783.72;5096330;28;20255;-38
2023/12/07 10:28:38;;;;;;;;;;;;;;;1.51;100.00;101780.81;5112770;28;19981;-38
2023/12/07 10:31:03;;;;;;;;;;;;;;;1.56;100.00;101780.53;5107986;28;19924;-37
2023/12/07 10:33:28;;;;;;;;;;;;;;;1.64;100.00;101772.91;5116970;28;19924;-39
2023/12/07 10:35:53;;;;;;;;;;;;;;;1.62;100.00;101768.66;5123470;27;19992;-38
2023/12/07 10:38:19;;;;;;;;;;;;;;;1.62;100.00;101763.34;5116939;28;19926;-38
2023/12/07 10:40:46;;;;;;;;;;;;;;;1.71;100.00;101752.09;5121079;27;20006;-38
2023/12/07 10:43:11;;;;;;;;;;;;;;;1.81;100.00;101739.06;5117314;28;19923;-38
2023/12/07 10:45:37;;;;;;;;;;;;;;;1.83;100.00;101738.03;5117119;28;19920;-39
2023/12/07 10:48:06;;;;;;;;;;;;;;;1.78;100.00;101736.63;5118906;28;19916;-38
2023/12/07 10:50:32;;;;;;;;;;;;;;;1.91;100.00;101740.16;5122003;27;19969;-38
2023/12/07 10:52:57;;;;;;;;;;;;;;;1.80;100.00;101748.00;5122030;28;19915;-39
2023/12/07 10:55:28;;;;;;;;;;;;;;;1.84;100.00;101739.72;5123918;28;19920;-39
2023/12/07 10:57:54;;;;;;;;;;;;;;;1.92;100.00;101724.16;5123007;28;20375;-37
2023/12/07 11:00:19;;;;;;;;;;;;;;;1.95;100.00;101715.13;5120686;28;19927;-38
2023/12/07 11:02:44;;;;;;;;;;;;;;;1.95;100.00;101718.63;5117889;28;19920;-37
2023/12/07 11:05:09;;;;;;;;;;;;;;;1.98;100.00;101713.09;5117307;28;19924;-38
2023/12/07 11:07:40;;;;;;;;;;;;;;;1.91;100.00;101706.50;5115230;28;19968;-38
2023/12/07 11:10:07;;;;;;;;;;;;;;;1.99;100.00;101698.00;5115468;28;19976;-38
2023/12/07 11:12:45;;;;;;;;;;;;;;;2.01;100.00;101690.78;5115769;28;19923;-39
2023/12/07 11:15:11;;;;;;;;;;;;;;;2.05;100.00;101686.13;5114650;28;20326;-38
2023/12/07 11:17:53;;;;;;;;;;;;;;;2.15;100.00;101685.38;5115780;28;20004;-38
2023/12/07 11:20:22;;;;;;;;;;;;;;;2.20;100.00;101671.78;5116651;28;19919;-38
2023/12/07 11:22:48;;;;;;;;;;;;;;;2.26;100.00;101658.06;5115826;28;19972;-36
2023/12/07 11:25:14;;;;;;;;;;;;;;;2.30;100.00;101667.53;5113287;28;19920;-38
2023/12/07 11:27:40;;;;;;;;;;;;;;;2.37;100.00;101668.78;5115268;28;19919;-37
2023/12/07 11:30:05;;;;;;;;;;;;;;;2.33;100.00;101658.50;5118643;27;19919;-38
2023/12/07 11:32:31;;;;;;;;;;;;;;;2.27;100.00;101666.91;5116184;28;19920;-37
2023/12/07 11:35:02;;;;;;;;;;;;;;;2.25;100.00;101643.09;5116489;27;19923;-37
2023/12/07 11:37:27;;;;;;;;;;;;;;;2.29;100.00;101636.63;5117283;28;19923;-38
2023/12/07 11:39:52;;;;;;;;;;;;;;;2.39;100.00;101642.94;5126375;27;19922;-38
2023/12/07 11:42:18;;;;;;;;;;;;;;;2.51;100.00;101624.44;5125362;27;19931;-38
2023/12/07 11:44:48;;;;;;;;;;;;;;;2.48;100.00;101622.88;5115318;27;20388;-36
2023/12/07 11:47:23;;;;;;;;;;;;;;;2.58;100.00;101609.75;5115733;28;19924;-38
2023/12/07 11:49:48;;;;;;;;;;;;;;;2.61;100.00;101604.22;5118829;27;20303;-38
2023/12/07 11:52:14;;;;;;;;;;;;;;;2.62;100.00;101588.16;5122141;27;19941;-37
2023/12/07 11:54:39;;;;;;;;;;;;;;;2.79;100.00;101588.72;5115654;28;20369;-39
2023/12/07 11:57:04;;;;;;;;;;;;;;;2.98;100.00;101580.25;5115478;28;19915;-39
2023/12/07 11:59:30;;;;;;;;;;;;;;;2.95;100.00;101567.16;5115009;27;20223;-39
2023/12/07 12:01:55;;;;;;;;;;;;;;;2.90;100.00;101558.69;5113612;28;19928;-38
2023/12/07 12:04:21;;;;;;;;;;;;;;;3.06;100.00;101551.28;5115236;28;19923;-39
2023/12/07 12:06:47;;;;;;;;;;;;;;;2.95;100.00;101546.75;5114852;28;19930;-36
2023/12/07 12:09:12;;;;;;;;;;;;;;;2.99;100.00;101536.72;5115784;28;19920;-36
2023/12/07 12:11:38;;;;;;;;;;;;;;;3.04;100.00;101538.06;5115067;27;19930;-39
2023/12/07 12:14:04;;;;;;;;;;;;;;;3.01;100.00;101526.84;5115814;28;19920;-39
2023/12/07 12:16:29;;;;;;;;;;;;;;;2.96;100.00;101516.53;5118149;27;19928;-38
2023/12/07 12:18:54;;;;;;;;;;;;;;;3.00;100.00;101510.03;5115165;28;19924;-38
2023/12/07 12:21:20;;;;;;;;;;;;;;;2.91;100.00;101509.88;5098037;27;19954;-38
2023/12/07 12:23:47;;;;;;;;;;;;;;;2.81;100.00;101505.22;5113622;28;19959;-38
2023/12/07 12:26:12;;;;;;;;;;;;;;;2.80;100.00;101494.75;5115201;27;19958;-37